createdAt,value
2023-04-18T00:01:40.778Z,9.41
2023-04-18T00:04:46.403Z,9.39
2023-04-18T00:07:49.418Z,9.40
2023-04-18T00:10:52.237Z,9.44
2023-04-18T00:13:57.506Z,9.41
2023-04-18T00:17:01.432Z,9.41
2023-04-18T00:20:07.138Z,9.48
2023-04-18T00:23:14.078Z,9.47
2023-04-18T00:26:16.915Z,9.49
2023-04-18T00:29:20.890Z,9.49
2023-04-18T00:32:23.633Z,9.46
2023-04-18T00:35:26.376Z,9.54
2023-04-18T00:38:29.033Z,9.54
2023-04-18T00:41:31.719Z,9.51
2023-04-18T00:44:35.668Z,9.51
2023-04-18T00:47:38.449Z,9.54
2023-04-18T00:50:41.903Z,9.53
2023-04-18T00:53:45.975Z,9.56
2023-04-18T00:56:49.235Z,9.60
2023-04-18T00:59:53.438Z,9.60
2023-04-18T01:02:56.429Z,9.63
2023-04-18T01:06:01.037Z,9.67
2023-04-18T01:09:05.549Z,9.60
2023-04-18T01:12:08.276Z,9.59
2023-04-18T01:15:12.791Z,9.57
2023-04-18T01:18:16.902Z,9.62
2023-04-18T01:21:20.104Z,9.58
2023-04-18T01:24:26.749Z,9.58
2023-04-18T01:27:29.428Z,9.60
2023-04-18T01:30:32.150Z,9.60
2023-04-18T01:33:34.839Z,9.62
2023-04-18T01:36:39.631Z,9.64
2023-04-18T01:39:43.646Z,9.63
2023-04-18T01:42:46.434Z,9.64
2023-04-18T01:45:49.081Z,9.63
2023-04-18T01:48:51.929Z,9.62
2023-04-18T01:51:54.654Z,9.62
2023-04-18T01:54:58.602Z,9.60
2023-04-18T01:58:01.847Z,9.59
2023-04-18T02:01:04.763Z,9.61
2023-04-18T02:04:07.602Z,9.63
2023-04-18T02:07:10.496Z,9.58
2023-04-18T02:10:14.485Z,9.54
2023-04-18T02:13:17.116Z,9.55
2023-04-18T02:16:19.812Z,9.50
2023-04-18T02:19:22.508Z,9.48
2023-04-18T02:22:25.226Z,9.46
2023-04-18T02:25:29.406Z,9.48
2023-04-18T02:28:32.066Z,9.47
2023-04-18T02:31:34.872Z,9.46
2023-04-18T02:34:37.951Z,9.42
2023-04-18T02:37:40.777Z,9.41
2023-04-18T02:40:44.773Z,9.40
2023-04-18T02:43:47.635Z,9.39
2023-04-18T02:46:50.485Z,9.37
2023-04-18T02:49:53.324Z,9.41
2023-04-18T02:52:56.845Z,9.40
2023-04-18T02:56:01.208Z,9.39
2023-04-18T02:59:03.824Z,9.36
2023-04-18T03:02:06.561Z,9.34
2023-04-18T03:05:09.450Z,9.36
2023-04-18T03:08:12.295Z,9.34
2023-04-18T03:11:16.410Z,9.31
2023-04-18T03:14:19.034Z,9.31
2023-04-18T03:17:21.721Z,9.20
2023-04-18T03:20:24.459Z,9.25
2023-04-18T03:23:27.127Z,9.17
2023-04-18T03:26:31.856Z,9.14
2023-04-18T03:29:34.537Z,9.12
2023-04-18T03:32:37.273Z,9.04
2023-04-18T03:35:39.986Z,8.99
2023-04-18T03:38:42.795Z,8.93
2023-04-18T03:41:46.777Z,8.94
2023-04-18T03:44:50.590Z,8.88
2023-04-18T03:47:53.256Z,8.82
2023-04-18T03:50:56.031Z,8.89
2023-04-18T03:53:58.884Z,8.88
2023-04-18T03:57:03.149Z,8.88
2023-04-18T04:00:08.182Z,8.85
2023-04-18T04:03:11.378Z,8.81
2023-04-18T04:06:14.299Z,8.78
2023-04-18T04:09:17.015Z,8.69
2023-04-18T04:12:21.027Z,8.65
2023-04-18T04:15:23.871Z,8.63
2023-04-18T04:18:31.015Z,8.54
2023-04-18T04:21:33.920Z,8.61
2023-04-18T04:24:38.486Z,8.60
2023-04-18T04:27:42.785Z,8.58
2023-04-18T04:30:45.594Z,8.59
2023-04-18T04:33:48.209Z,8.59
2023-04-18T04:36:51.069Z,8.55
2023-04-18T04:39:53.681Z,8.53
2023-04-18T04:42:58.570Z,8.51
2023-04-18T04:46:02.843Z,8.45
2023-04-18T04:49:05.520Z,8.47
2023-04-18T04:52:08.209Z,8.51
2023-04-18T04:55:11.417Z,8.56
2023-04-18T04:58:15.865Z,8.51
2023-04-18T05:01:18.646Z,8.49
2023-04-18T05:04:21.717Z,8.55
2023-04-18T05:07:24.888Z,8.52
2023-04-18T05:10:27.630Z,8.57
2023-04-18T05:13:31.694Z,8.58
2023-04-18T05:16:34.460Z,8.61
2023-04-18T05:19:37.282Z,8.63
2023-04-18T05:22:40.157Z,8.61
2023-04-18T05:25:43.090Z,8.62
2023-04-18T05:28:47.152Z,8.65
2023-04-18T05:31:49.820Z,8.70
2023-04-18T05:34:52.451Z,8.71
2023-04-18T05:37:55.188Z,8.72
2023-04-18T05:41:00.223Z,8.79
2023-04-18T05:44:05.600Z,8.81
2023-04-18T05:47:19.840Z,8.86
2023-04-18T05:50:23.094Z,8.89
2023-04-18T05:53:25.805Z,8.93
2023-04-18T05:56:28.517Z,8.99
2023-04-18T05:59:32.517Z,8.98
2023-04-18T06:02:35.281Z,8.99
2023-04-18T06:05:38.299Z,9.09
2023-04-18T06:08:41.271Z,9.19
2023-04-18T06:11:43.878Z,9.26
2023-04-18T06:14:47.856Z,9.32
2023-04-18T06:17:50.448Z,9.35
2023-04-18T06:20:53.055Z,9.41
2023-04-18T06:23:55.732Z,9.41
2023-04-18T06:26:58.481Z,9.43
2023-04-18T06:30:02.521Z,9.42
2023-04-18T06:33:05.311Z,9.43
2023-04-18T06:36:08.957Z,9.43
2023-04-18T06:39:11.692Z,9.42
2023-04-18T06:42:14.657Z,9.42
2023-04-18T06:45:18.709Z,9.42
2023-04-18T06:48:21.582Z,9.42
2023-04-18T06:51:24.196Z,9.41
2023-04-18T06:54:26.893Z,9.51
2023-04-18T06:57:29.916Z,9.45
2023-04-18T07:00:33.882Z,9.41
2023-04-18T07:03:36.627Z,9.42
2023-04-18T07:06:39.335Z,9.48
2023-04-18T07:09:41.919Z,9.52
2023-04-18T07:12:44.567Z,9.52
2023-04-18T07:15:48.689Z,9.52
2023-04-18T07:18:51.746Z,9.56
2023-04-18T07:21:55.889Z,9.57
2023-04-18T07:24:58.488Z,9.62
2023-04-18T07:28:01.042Z,9.70
2023-04-18T07:31:05.146Z,9.72
2023-04-18T07:34:08.946Z,9.74
2023-04-18T07:37:14.650Z,9.79
2023-04-18T07:40:17.614Z,9.83
2023-04-18T07:43:21.033Z,9.89
2023-04-18T07:46:25.196Z,9.90
2023-04-18T07:49:28.592Z,9.93
2023-04-18T07:52:31.252Z,10.00
2023-04-18T07:55:33.907Z,10.02
2023-04-18T07:58:36.762Z,9.99
2023-04-18T08:01:40.792Z,10.19
2023-04-18T08:04:43.630Z,10.42
2023-04-18T08:07:46.512Z,10.55
2023-04-18T08:10:49.105Z,10.67
2023-04-18T08:13:51.712Z,10.77
2023-04-18T08:16:55.654Z,10.95
2023-04-18T08:19:58.699Z,11.09
2023-04-18T08:23:08.447Z,11.32
2023-04-18T08:26:13.149Z,11.54
2023-04-18T08:29:15.956Z,11.84
2023-04-18T08:32:20.081Z,12.03
2023-04-18T08:35:22.769Z,12.19
2023-04-18T08:38:25.852Z,12.15
2023-04-18T08:41:29.543Z,12.07
2023-04-18T08:44:32.735Z,12.04
2023-04-18T08:47:37.269Z,12.02
2023-04-18T08:50:39.962Z,11.97
2023-04-18T08:53:44.671Z,11.92
2023-04-18T08:56:47.805Z,11.94
2023-04-18T08:59:51.268Z,11.98
2023-04-18T09:02:57.081Z,11.99
2023-04-18T09:06:08.312Z,11.94
2023-04-18T09:09:11.022Z,12.05
2023-04-18T09:12:15.223Z,12.08
2023-04-18T09:15:20.181Z,12.22
2023-04-18T09:18:24.195Z,12.16
2023-04-18T09:21:27.865Z,12.06
2023-04-18T09:24:32.410Z,11.95
2023-04-18T09:27:35.876Z,11.88
2023-04-18T09:30:39.826Z,11.84
2023-04-18T09:33:54.082Z,11.62
2023-04-18T09:37:10.960Z,11.57
2023-04-18T09:40:18.584Z,11.66
2023-04-18T09:43:22.060Z,11.67
2023-04-18T09:46:25.340Z,11.73
2023-04-18T09:49:29.902Z,11.74
2023-04-18T09:52:35.768Z,11.87
2023-04-18T09:55:42.262Z,11.97
2023-04-18T09:58:47.953Z,12.02
2023-04-18T10:01:51.371Z,12.10
2023-04-18T10:04:56.882Z,12.11
2023-04-18T10:07:59.627Z,12.25
2023-04-18T10:11:02.537Z,12.32
2023-04-18T10:14:08.635Z,12.37
2023-04-18T10:17:11.899Z,12.38
2023-04-18T10:20:21.120Z,12.39
2023-04-18T10:23:36.486Z,12.37
2023-04-18T10:26:50.095Z,12.27
2023-04-18T10:30:00.938Z,12.20
2023-04-18T10:33:30.268Z,12.31
2023-04-18T10:36:34.369Z,12.46
2023-04-18T10:39:52.068Z,12.56
2023-04-18T10:43:01.075Z,12.65
2023-04-18T10:46:27.767Z,12.76
2023-04-18T10:49:34.364Z,12.85
2023-04-18T10:52:36.995Z,12.85
2023-04-18T10:55:42.918Z,12.79
2023-04-18T10:58:51.106Z,12.88
2023-04-18T11:01:57.983Z,12.90
2023-04-18T11:05:04.462Z,12.91
2023-04-18T11:08:24.217Z,12.97
2023-04-18T11:11:26.854Z,13.07
2023-04-18T11:14:40.417Z,13.17
2023-04-18T11:17:45.038Z,13.09
2023-04-18T11:20:49.167Z,12.96
2023-04-18T11:23:51.868Z,12.96
2023-04-18T11:26:56.393Z,13.02
2023-04-18T11:29:59.289Z,13.12
2023-04-18T11:33:08.388Z,13.13
2023-04-18T11:36:11.359Z,13.02
2023-04-18T11:39:14.310Z,12.93
2023-04-18T11:42:17.221Z,12.86
2023-04-18T11:45:20.190Z,12.82
2023-04-18T11:48:25.041Z,12.79
2023-04-18T11:51:35.657Z,12.78
2023-04-18T11:54:40.502Z,12.80
2023-04-18T11:57:43.116Z,12.85
2023-04-18T12:00:45.890Z,12.94
2023-04-18T12:04:03.400Z,13.00
2023-04-18T12:07:06.600Z,13.03
2023-04-18T12:10:24.422Z,13.06
2023-04-18T12:13:32.191Z,13.09
2023-04-18T12:16:35.058Z,13.19
2023-04-18T12:19:39.221Z,13.26
2023-04-18T12:22:44.496Z,13.24
2023-04-18T12:26:01.489Z,13.27
2023-04-18T12:29:04.591Z,13.39
2023-04-18T12:32:07.399Z,13.52
2023-04-18T12:35:11.722Z,13.70
2023-04-18T12:38:14.622Z,13.88
2023-04-18T12:41:17.244Z,13.96
2023-04-18T12:44:20.036Z,14.03
2023-04-18T12:47:22.820Z,14.03
2023-04-18T12:50:27.943Z,14.04
2023-04-18T12:53:30.690Z,13.99
2023-04-18T12:56:33.318Z,14.03
2023-04-18T12:59:36.517Z,14.02
2023-04-18T13:02:40.502Z,14.05
2023-04-18T13:05:44.824Z,14.11
2023-04-18T13:08:47.792Z,14.15
2023-04-18T13:11:50.595Z,14.10
2023-04-18T13:14:53.392Z,14.16
2023-04-18T13:17:57.176Z,14.25
2023-04-18T13:21:01.399Z,14.33
2023-04-18T13:24:05.402Z,14.45
2023-04-18T13:27:11.124Z,14.52
2023-04-18T13:30:14.466Z,14.50
2023-04-18T13:33:17.826Z,14.41
2023-04-18T13:36:22.403Z,14.41
2023-04-18T13:39:25.876Z,14.38
2023-04-18T13:42:28.564Z,14.26
2023-04-18T13:45:31.304Z,14.18
2023-04-18T13:48:33.992Z,14.18
2023-04-18T13:51:38.180Z,14.16
2023-04-18T13:54:41.434Z,14.16
2023-04-18T13:57:44.380Z,14.18
2023-04-18T14:00:47.166Z,14.18
2023-04-18T14:03:50.187Z,14.11
2023-04-18T14:06:54.481Z,14.05
2023-04-18T14:09:57.226Z,13.93
2023-04-18T14:13:00.640Z,13.88
2023-04-18T14:16:04.503Z,13.95
2023-04-18T14:19:07.739Z,13.97
2023-04-18T14:22:12.018Z,14.01
2023-04-18T14:25:17.079Z,14.02
2023-04-18T14:28:22.083Z,13.93
2023-04-18T14:31:24.885Z,14.02
2023-04-18T14:34:27.843Z,14.05
2023-04-18T14:37:31.943Z,14.05
2023-04-18T14:40:34.741Z,14.05
2023-04-18T14:43:37.593Z,13.99
2023-04-18T14:46:40.535Z,14.01
2023-04-18T14:49:43.257Z,14.04
2023-04-18T14:52:47.643Z,14.03
2023-04-18T14:55:50.527Z,14.04
2023-04-18T14:58:53.112Z,14.11
2023-04-18T15:01:56.075Z,14.14
2023-04-18T15:04:59.314Z,14.23
2023-04-18T15:08:04.473Z,14.22
2023-04-18T15:11:07.970Z,14.26
2023-04-18T15:14:10.718Z,14.24
2023-04-18T15:17:13.354Z,14.22
2023-04-18T15:20:16.136Z,14.15
2023-04-18T15:23:20.656Z,14.11
2023-04-18T15:26:24.156Z,14.06
2023-04-18T15:29:26.941Z,14.01
2023-04-18T15:32:30.089Z,14.00
2023-04-18T15:35:32.789Z,14.04
2023-04-18T15:38:36.716Z,14.06
2023-04-18T15:41:39.815Z,14.01
2023-04-18T15:44:42.518Z,13.99
2023-04-18T15:47:45.177Z,13.89
2023-04-18T15:50:51.236Z,13.86
2023-04-18T15:53:55.446Z,13.79
2023-04-18T15:56:58.166Z,13.74
2023-04-18T16:00:00.988Z,13.78
2023-04-18T16:03:03.774Z,13.75
2023-04-18T16:06:06.878Z,13.80
2023-04-18T16:09:11.184Z,13.77
2023-04-18T16:12:14.252Z,13.76
2023-04-18T16:15:16.895Z,13.73
2023-04-18T16:18:19.666Z,13.76
2023-04-18T16:21:22.377Z,13.69
2023-04-18T16:24:26.502Z,13.70
2023-04-18T16:27:29.268Z,13.78
2023-04-18T16:30:32.040Z,13.76
2023-04-18T16:33:34.729Z,13.71
2023-04-18T16:36:37.575Z,13.71
2023-04-18T16:39:41.542Z,13.66
2023-04-18T16:42:44.161Z,13.67
2023-04-18T16:45:46.871Z,13.61
2023-04-18T16:48:51.768Z,13.58
2023-04-18T16:51:55.087Z,13.52
2023-04-18T16:54:59.029Z,13.52
2023-04-18T16:58:01.710Z,13.50
2023-04-18T17:01:04.451Z,13.52
2023-04-18T17:04:07.084Z,13.44
2023-04-18T17:07:09.784Z,13.42
2023-04-18T17:10:14.107Z,13.40
2023-04-18T17:13:16.711Z,13.31
2023-04-18T17:16:19.372Z,13.31
2023-04-18T17:19:22.278Z,13.29
2023-04-18T17:22:24.895Z,13.30
2023-04-18T17:25:29.204Z,13.29
2023-04-18T17:28:31.850Z,13.31
2023-04-18T17:31:35.110Z,13.27
2023-04-18T17:34:37.809Z,13.31
2023-04-18T17:37:40.465Z,13.35
2023-04-18T17:40:44.472Z,13.27
2023-04-18T17:43:47.527Z,13.27
2023-04-18T17:46:50.642Z,13.18
2023-04-18T17:49:53.329Z,13.20
2023-04-18T17:52:56.023Z,13.15
2023-04-18T17:56:00.143Z,13.18
2023-04-18T17:59:02.995Z,13.22
2023-04-18T18:02:05.886Z,13.17
2023-04-18T18:05:12.799Z,13.14
2023-04-18T18:08:15.901Z,13.13
2023-04-18T18:11:20.473Z,13.09
2023-04-18T18:14:23.139Z,13.06
2023-04-18T18:17:25.893Z,13.01
2023-04-18T18:20:29.303Z,12.98
2023-04-18T18:23:32.172Z,12.92
2023-04-18T18:26:36.921Z,12.89
2023-04-18T18:29:39.548Z,12.84
2023-04-18T18:32:42.234Z,12.86
2023-04-18T18:35:44.818Z,12.82
2023-04-18T18:38:47.407Z,12.81
2023-04-18T18:41:52.099Z,12.82
2023-04-18T18:44:54.772Z,12.76
2023-04-18T18:47:57.441Z,12.74
2023-04-18T18:51:00.084Z,12.78
2023-04-18T18:54:02.716Z,12.76
2023-04-18T18:57:06.803Z,12.71
2023-04-18T19:00:11.933Z,12.62
2023-04-18T19:03:18.354Z,12.56
2023-04-18T19:06:21.125Z,12.57
2023-04-18T19:09:23.739Z,12.57
2023-04-18T19:12:28.200Z,12.54
2023-04-18T19:15:31.050Z,12.53
2023-04-18T19:18:33.704Z,12.51
2023-04-18T19:21:36.423Z,12.43
2023-04-18T19:24:39.076Z,12.45
2023-04-18T19:27:43.705Z,12.46
2023-04-18T19:30:47.127Z,12.40
2023-04-18T19:33:50.602Z,12.36
2023-04-18T19:36:53.204Z,12.40
2023-04-18T19:39:55.921Z,12.33
2023-04-18T19:42:59.903Z,12.34
2023-04-18T19:46:02.718Z,12.26
2023-04-18T19:49:05.712Z,12.26
2023-04-18T19:52:08.379Z,12.28
2023-04-18T19:55:11.344Z,12.23
2023-04-18T19:58:34.214Z,12.20
2023-04-18T20:01:36.985Z,12.27
2023-04-18T20:04:40.540Z,12.20
2023-04-18T20:07:43.423Z,12.14
2023-04-18T20:10:46.057Z,12.07
2023-04-18T20:13:52.084Z,11.97
2023-04-18T20:16:55.888Z,12.01
2023-04-18T20:19:59.629Z,12.04
2023-04-18T20:23:03.565Z,12.04
2023-04-18T20:26:06.587Z,12.04
2023-04-18T20:29:11.250Z,12.06
2023-04-18T20:32:14.411Z,12.04
2023-04-18T20:35:17.026Z,11.94
2023-04-18T20:38:20.101Z,11.94
2023-04-18T20:41:24.251Z,11.90
2023-04-18T20:44:30.061Z,11.86
2023-04-18T20:47:33.361Z,11.85
2023-04-18T20:50:36.028Z,11.85
2023-04-18T20:53:38.784Z,11.86
2023-04-18T20:56:41.585Z,11.88
2023-04-18T20:59:45.737Z,11.88
2023-04-18T21:02:50.524Z,11.90
2023-04-18T21:05:53.637Z,11.85
2023-04-18T21:08:56.259Z,11.81
2023-04-18T21:11:59.321Z,11.73
2023-04-18T21:15:05.409Z,11.68
2023-04-18T21:18:08.097Z,11.68
2023-04-18T21:21:11.693Z,11.69
2023-04-18T21:24:14.764Z,11.68
2023-04-18T21:27:17.619Z,11.70
2023-04-18T21:30:22.503Z,11.70
2023-04-18T21:33:26.142Z,11.62
2023-04-18T21:36:30.618Z,11.65
2023-04-18T21:39:33.285Z,11.65
2023-04-18T21:42:36.478Z,11.60
2023-04-18T21:45:40.583Z,11.55
2023-04-18T21:48:45.357Z,11.48
2023-04-18T21:51:48.850Z,11.48
2023-04-18T21:54:51.492Z,11.55
2023-04-18T21:57:54.224Z,11.45
2023-04-18T22:00:58.436Z,11.44
2023-04-18T22:04:01.495Z,11.55
2023-04-18T22:07:04.491Z,11.53
2023-04-18T22:10:08.098Z,11.52
2023-04-18T22:13:11.342Z,11.55
2023-04-18T22:16:15.385Z,11.48
2023-04-18T22:19:19.162Z,11.46
2023-04-18T22:22:21.807Z,11.42
2023-04-18T22:25:24.428Z,11.38
2023-04-18T22:28:27.989Z,11.38
2023-04-18T22:31:32.101Z,11.31
2023-04-18T22:34:34.826Z,11.35
2023-04-18T22:37:37.438Z,11.39
2023-04-18T22:40:40.111Z,11.35
2023-04-18T22:43:42.942Z,11.38
2023-04-18T22:46:48.083Z,11.36
2023-04-18T22:49:51.699Z,11.32
2023-04-18T22:52:54.426Z,11.35
2023-04-18T22:55:57.027Z,11.37
2023-04-18T22:58:59.598Z,11.38
2023-04-18T23:02:03.616Z,11.32
2023-04-18T23:05:08.078Z,11.27
2023-04-18T23:08:11.892Z,11.28
2023-04-18T23:11:14.616Z,11.21
2023-04-18T23:14:17.309Z,11.17
2023-04-18T23:17:22.050Z,11.21
2023-04-18T23:20:24.899Z,11.20
2023-04-18T23:23:27.587Z,11.24
2023-04-18T23:26:30.224Z,11.21
2023-04-18T23:29:36.848Z,11.20
2023-04-18T23:32:40.936Z,11.17
2023-04-18T23:35:43.705Z,11.10
2023-04-18T23:38:46.883Z,11.03
2023-04-18T23:41:50.166Z,10.99
2023-04-18T23:44:52.831Z,11.03
2023-04-18T23:47:56.819Z,10.95
2023-04-18T23:50:59.516Z,10.84
2023-04-18T23:54:02.145Z,10.87
2023-04-18T23:57:04.859Z,10.79
